sensor_id;sensor_type;location;lat;lon;timestamp;pressure;altitude;pressure_sealevel;temperature;humidity
35435;BME280;21556;55.782;37.528;2023-02-13T00:01:43;100025.97;;;-5.06;100.00
35435;BME280;21556;55.782;37.528;2023-02-13T00:04:10;100027.91;;;-5.14;100.00
35435;BME280;21556;55.782;37.528;2023-02-13T00:06:35;100021.53;;;-5.29;100.00
35435;BME280;21556;55.782;37.528;2023-02-13T00:09:02;100008.94;;;-4.86;100.00
35435;BME280;21556;55.782;37.528;2023-02-13T00:11:28;99998.34;;;-4.16;100.00
35435;BME280;21556;55.782;37.528;2023-02-13T00:13:54;99994.56;;;-4.63;100.00
35435;BME280;21556;55.782;37.528;2023-02-13T00:16:20;99992.38;;;-4.69;100.00
35435;BME280;21556;55.782;37.528;2023-02-13T00:18:46;99986.19;;;-4.93;100.00
35435;BME280;21556;55.782;37.528;2023-02-13T00:21:12;99986.06;;;-4.52;100.00
35435;BME280;21556;55.782;37.528;2023-02-13T00:23:39;99977.56;;;-4.41;100.00
35435;BME280;21556;55.782;37.528;2023-02-13T00:26:07;99979.63;;;-4.79;100.00
35435;BME280;21556;55.782;37.528;2023-02-13T00:28:33;99976.56;;;-4.85;100.00
35435;BME280;21556;55.782;37.528;2023-02-13T00:31:10;99980.59;;;-4.56;100.00
35435;BME280;21556;55.782;37.528;2023-02-13T00:33:37;99967.78;;;-5.09;100.00
35435;BME280;21556;55.782;37.528;2023-02-13T00:36:15;99958.53;;;-4.00;100.00
35435;BME280;21556;55.782;37.528;2023-02-13T00:38:42;99957.97;;;-4.40;100.00
35435;BME280;21556;55.782;37.528;2023-02-13T00:41:09;99949.59;;;-4.05;100.00
35435;BME280;21556;55.782;37.528;2023-02-13T00:43:35;99942.84;;;-3.93;100.00
35435;BME280;21556;55.782;37.528;2023-02-13T00:46:02;99936.25;;;-4.23;100.00
35435;BME280;21556;55.782;37.528;2023-02-13T00:48:30;99926.78;;;-4.02;100.00
35435;BME280;21556;55.782;37.528;2023-02-13T00:50:56;99926.53;;;-4.27;100.00
35435;BME280;21556;55.782;37.528;2023-02-13T00:53:23;99930.19;;;-4.36;100.00
35435;BME280;21556;55.782;37.528;2023-02-13T00:55:49;99933.78;;;-4.44;100.00
35435;BME280;21556;55.782;37.528;2023-02-13T00:58:16;99935.66;;;-4.31;100.00
35435;BME280;21556;55.782;37.528;2023-02-13T01:00:42;99927.53;;;-4.03;100.00
35435;BME280;21556;55.782;37.528;2023-02-13T01:03:08;99934.69;;;-4.21;100.00
35435;BME280;21556;55.782;37.528;2023-02-13T01:05:35;99930.25;;;-3.68;100.00
35435;BME280;21556;55.782;37.528;2023-02-13T01:08:02;99928.56;;;-3.68;100.00
35435;BME280;21556;55.782;37.528;2023-02-13T01:10:28;99928.06;;;-3.85;100.00
35435;BME280;21556;55.782;37.528;2023-02-13T01:12:54;99930.75;;;-4.82;100.00
35435;BME280;21556;55.782;37.528;2023-02-13T01:15:19;99923.72;;;-4.95;100.00
35435;BME280;21556;55.782;37.528;2023-02-13T01:17:47;99921.84;;;-4.65;100.00
35435;BME280;21556;55.782;37.528;2023-02-13T01:20:13;99919.44;;;-4.74;100.00
35435;BME280;21556;55.782;37.528;2023-02-13T01:22:40;99911.03;;;-4.83;100.00
35435;BME280;21556;55.782;37.528;2023-02-13T01:25:09;99912.81;;;-4.72;100.00
35435;BME280;21556;55.782;37.528;2023-02-13T01:27:35;99910.00;;;-4.75;100.00
35435;BME280;21556;55.782;37.528;2023-02-13T01:30:04;99899.59;;;-4.76;100.00
35435;BME280;21556;55.782;37.528;2023-02-13T01:32:35;99899.25;;;-4.81;100.00
35435;BME280;21556;55.782;37.528;2023-02-13T01:35:01;99887.34;;;-4.80;100.00
35435;BME280;21556;55.782;37.528;2023-02-13T01:37:28;99882.88;;;-4.83;100.00
35435;BME280;21556;55.782;37.528;2023-02-13T01:39:54;99881.88;;;-4.85;100.00
35435;BME280;21556;55.782;37.528;2023-02-13T01:42:25;99876.66;;;-4.65;100.00
35435;BME280;21556;55.782;37.528;2023-02-13T01:44:58;99874.22;;;-4.95;100.00
35435;BME280;21556;55.782;37.528;2023-02-13T01:50:21;99855.41;;;-4.64;100.00
35435;BME280;21556;55.782;37.528;2023-02-13T01:52:53;99859.72;;;-4.85;100.00
35435;BME280;21556;55.782;37.528;2023-02-13T01:55:20;99849.25;;;-4.66;100.00
35435;BME280;21556;55.782;37.528;2023-02-13T01:57:53;99841.03;;;-4.62;100.00
35435;BME280;21556;55.782;37.528;2023-02-13T02:00:19;99839.13;;;-4.86;100.00
35435;BME280;21556;55.782;37.528;2023-02-13T02:02:52;99843.44;;;-4.75;100.00
35435;BME280;21556;55.782;37.528;2023-02-13T02:05:26;99838.47;;;-4.62;100.00
35435;BME280;21556;55.782;37.528;2023-02-13T02:07:53;99831.78;;;-4.71;100.00
35435;BME280;21556;55.782;37.528;2023-02-13T02:10:22;99834.91;;;-4.64;100.00
35435;BME280;21556;55.782;37.528;2023-02-13T02:12:54;99828.97;;;-4.52;100.00
35435;BME280;21556;55.782;37.528;2023-02-13T02:15:24;99836.31;;;-4.57;100.00
35435;BME280;21556;55.782;37.528;2023-02-13T02:17:50;99838.91;;;-4.67;100.00
35435;BME280;21556;55.782;37.528;2023-02-13T02:23:45;99821.34;;;-4.63;100.00
35435;BME280;21556;55.782;37.528;2023-02-13T02:32:17;99809.72;;;-4.69;100.00
35435;BME280;21556;55.782;37.528;2023-02-13T02:48:49;99770.91;;;-4.64;100.00
35435;BME280;21556;55.782;37.528;2023-02-13T02:54:44;99760.66;;;-4.42;100.00
35435;BME280;21556;55.782;37.528;2023-02-13T02:57:38;99766.03;;;-4.27;100.00
35435;BME280;21556;55.782;37.528;2023-02-13T03:00:27;99777.75;;;-4.19;100.00
35435;BME280;21556;55.782;37.528;2023-02-13T03:03:17;99764.81;;;-4.32;100.00
35435;BME280;21556;55.782;37.528;2023-02-13T03:08:53;99747.53;;;-4.34;100.00
35435;BME280;21556;55.782;37.528;2023-02-13T03:11:52;99747.94;;;-4.40;100.00
35435;BME280;21556;55.782;37.528;2023-02-13T03:14:38;99753.88;;;-4.63;100.00
35435;BME280;21556;55.782;37.528;2023-02-13T03:17:20;99748.41;;;-4.68;100.00
35435;BME280;21556;55.782;37.528;2023-02-13T03:30:18;99726.38;;;-4.32;100.00
35435;BME280;21556;55.782;37.528;2023-02-13T03:46:38;99679.28;;;-4.22;100.00
35435;BME280;21556;55.782;37.528;2023-02-13T03:49:16;99679.41;;;-4.21;100.00
35435;BME280;21556;55.782;37.528;2023-02-13T03:52:06;99681.56;;;-4.49;100.00
35435;BME280;21556;55.782;37.528;2023-02-13T03:57:26;99684.41;;;-4.22;100.00
35435;BME280;21556;55.782;37.528;2023-02-13T04:00:15;99682.84;;;-4.20;100.00
35435;BME280;21556;55.782;37.528;2023-02-13T04:03:16;99686.22;;;-3.98;100.00
35435;BME280;21556;55.782;37.528;2023-02-13T04:05:57;99684.75;;;-4.06;100.00
35435;BME280;21556;55.782;37.528;2023-02-13T04:08:28;99677.88;;;-3.95;100.00
35435;BME280;21556;55.782;37.528;2023-02-13T04:11:20;99670.50;;;-3.79;100.00
35435;BME280;21556;55.782;37.528;2023-02-13T04:14:00;99661.66;;;-3.71;100.00
35435;BME280;21556;55.782;37.528;2023-02-13T04:16:35;99658.25;;;-3.95;100.00
35435;BME280;21556;55.782;37.528;2023-02-13T04:19:05;99657.91;;;-3.99;100.00
35435;BME280;21556;55.782;37.528;2023-02-13T04:21:36;99654.66;;;-3.85;100.00
35435;BME280;21556;55.782;37.528;2023-02-13T04:24:05;99640.72;;;-3.89;100.00
35435;BME280;21556;55.782;37.528;2023-02-13T04:26:35;99630.03;;;-3.83;100.00
35435;BME280;21556;55.782;37.528;2023-02-13T04:29:02;99629.44;;;-3.67;100.00
35435;BME280;21556;55.782;37.528;2023-02-13T04:31:31;99621.97;;;-3.64;100.00
35435;BME280;21556;55.782;37.528;2023-02-13T04:33:57;99621.09;;;-3.65;100.00
35435;BME280;21556;55.782;37.528;2023-02-13T04:36:23;99618.31;;;-3.68;100.00
35435;BME280;21556;55.782;37.528;2023-02-13T04:38:49;99624.19;;;-3.57;100.00
35435;BME280;21556;55.782;37.528;2023-02-13T04:41:17;99607.81;;;-3.71;100.00
35435;BME280;21556;55.782;37.528;2023-02-13T04:43:43;99597.97;;;-3.53;100.00
35435;BME280;21556;55.782;37.528;2023-02-13T04:46:09;99602.44;;;-3.50;100.00
35435;BME280;21556;55.782;37.528;2023-02-13T04:48:35;99606.28;;;-3.69;100.00
35435;BME280;21556;55.782;37.528;2023-02-13T04:51:01;99597.97;;;-3.53;100.00
35435;BME280;21556;55.782;37.528;2023-02-13T04:53:29;99588.38;;;-3.44;100.00
35435;BME280;21556;55.782;37.528;2023-02-13T04:55:54;99585.00;;;-3.79;100.00
35435;BME280;21556;55.782;37.528;2023-02-13T04:58:20;99575.78;;;-3.52;100.00
35435;BME280;21556;55.782;37.528;2023-02-13T05:00:46;99567.19;;;-3.53;100.00
35435;BME280;21556;55.782;37.528;2023-02-13T05:03:12;99576.69;;;-3.52;100.00
35435;BME280;21556;55.782;37.528;2023-02-13T05:05:39;99563.28;;;-3.48;100.00
35435;BME280;21556;55.782;37.528;2023-02-13T05:08:06;99562.13;;;-3.65;100.00
35435;BME280;21556;55.782;37.528;2023-02-13T05:10:32;99557.91;;;-3.39;100.00
35435;BME280;21556;55.782;37.528;2023-02-13T05:12:58;99562.44;;;-3.35;100.00
35435;BME280;21556;55.782;37.528;2023-02-13T05:15:24;99557.47;;;-3.45;100.00
35435;BME280;21556;55.782;37.528;2023-02-13T05:17:50;99559.56;;;-3.40;100.00
35435;BME280;21556;55.782;37.528;2023-02-13T05:20:17;99567.38;;;-3.38;100.00
35435;BME280;21556;55.782;37.528;2023-02-13T05:22:48;99563.41;;;-3.21;100.00
35435;BME280;21556;55.782;37.528;2023-02-13T05:25:33;99555.13;;;-3.42;100.00
35435;BME280;21556;55.782;37.528;2023-02-13T05:28:00;99548.09;;;-3.20;100.00
35435;BME280;21556;55.782;37.528;2023-02-13T05:30:26;99542.97;;;-3.20;100.00
35435;BME280;21556;55.782;37.528;2023-02-13T05:32:52;99538.00;;;-3.05;100.00
35435;BME280;21556;55.782;37.528;2023-02-13T05:35:20;99531.56;;;-3.11;100.00
35435;BME280;21556;55.782;37.528;2023-02-13T05:37:51;99531.66;;;-3.10;100.00
35435;BME280;21556;55.782;37.528;2023-02-13T05:40:17;99527.03;;;-3.02;100.00
35435;BME280;21556;55.782;37.528;2023-02-13T05:42:43;99536.06;;;-3.21;100.00
35435;BME280;21556;55.782;37.528;2023-02-13T05:45:09;99537.75;;;-3.21;100.00
35435;BME280;21556;55.782;37.528;2023-02-13T05:47:38;99537.16;;;-3.17;100.00
35435;BME280;21556;55.782;37.528;2023-02-13T05:50:04;99535.38;;;-3.18;100.00
35435;BME280;21556;55.782;37.528;2023-02-13T05:52:30;99537.78;;;-3.08;100.00
35435;BME280;21556;55.782;37.528;2023-02-13T05:54:56;99535.28;;;-3.20;100.00
35435;BME280;21556;55.782;37.528;2023-02-13T05:57:22;99531.03;;;-2.94;100.00
35435;BME280;21556;55.782;37.528;2023-02-13T05:59:47;99537.47;;;-3.12;100.00
35435;BME280;21556;55.782;37.528;2023-02-13T06:02:13;99532.75;;;-3.06;100.00
35435;BME280;21556;55.782;37.528;2023-02-13T06:04:39;99540.50;;;-2.93;100.00
35435;BME280;21556;55.782;37.528;2023-02-13T06:07:05;99538.59;;;-2.96;100.00
35435;BME280;21556;55.782;37.528;2023-02-13T06:09:31;99529.50;;;-3.04;100.00
35435;BME280;21556;55.782;37.528;2023-02-13T06:11:57;99530.09;;;-3.08;100.00
35435;BME280;21556;55.782;37.528;2023-02-13T06:14:23;99539.63;;;-2.94;100.00
35435;BME280;21556;55.782;37.528;2023-02-13T06:16:49;99539.63;;;-2.94;100.00
35435;BME280;21556;55.782;37.528;2023-02-13T06:19:19;99530.81;;;-2.97;100.00
35435;BME280;21556;55.782;37.528;2023-02-13T06:21:44;99536.03;;;-2.96;100.00
35435;BME280;21556;55.782;37.528;2023-02-13T06:24:10;99534.66;;;-2.91;100.00
35435;BME280;21556;55.782;37.528;2023-02-13T06:26:36;99533.47;;;-2.96;100.00
35435;BME280;21556;55.782;37.528;2023-02-13T06:29:02;99523.78;;;-3.00;100.00
35435;BME280;21556;55.782;37.528;2023-02-13T06:31:29;99530.03;;;-2.96;100.00
35435;BME280;21556;55.782;37.528;2023-02-13T06:33:54;99523.91;;;-2.85;100.00
35435;BME280;21556;55.782;37.528;2023-02-13T06:36:20;99521.97;;;-2.76;100.00
35435;BME280;21556;55.782;37.528;2023-02-13T06:38:46;99518.16;;;-3.07;100.00
35435;BME280;21556;55.782;37.528;2023-02-13T06:41:12;99503.38;;;-2.85;100.00
35435;BME280;21556;55.782;37.528;2023-02-13T06:43:38;99500.00;;;-2.84;100.00
35435;BME280;21556;55.782;37.528;2023-02-13T06:46:05;99494.09;;;-2.70;100.00
35435;BME280;21556;55.782;37.528;2023-02-13T06:48:31;99493.13;;;-2.58;100.00
35435;BME280;21556;55.782;37.528;2023-02-13T06:50:56;99497.88;;;-2.64;100.00
35435;BME280;21556;55.782;37.528;2023-02-13T06:53:22;99497.28;;;-2.47;100.00
35435;BME280;21556;55.782;37.528;2023-02-13T06:55:51;99487.88;;;-2.73;100.00
35435;BME280;21556;55.782;37.528;2023-02-13T06:58:21;99490.25;;;-2.89;100.00
35435;BME280;21556;55.782;37.528;2023-02-13T07:00:48;99487.19;;;-2.71;100.00
35435;BME280;21556;55.782;37.528;2023-02-13T07:03:14;99479.91;;;-2.64;100.00
35435;BME280;21556;55.782;37.528;2023-02-13T07:05:41;99480.47;;;-2.55;100.00
35435;BME280;21556;55.782;37.528;2023-02-13T07:08:10;99480.38;;;-2.70;100.00
35435;BME280;21556;55.782;37.528;2023-02-13T07:10:37;99477.72;;;-2.72;100.00
35435;BME280;21556;55.782;37.528;2023-02-13T07:13:04;99466.66;;;-2.57;100.00
35435;BME280;21556;55.782;37.528;2023-02-13T07:15:31;99472.78;;;-2.69;100.00
35435;BME280;21556;55.782;37.528;2023-02-13T07:17:58;99464.38;;;-2.53;100.00
35435;BME280;21556;55.782;37.528;2023-02-13T07:20:25;99472.19;;;-2.51;100.00
35435;BME280;21556;55.782;37.528;2023-02-13T07:22:51;99451.63;;;-2.51;100.00
35435;BME280;21556;55.782;37.528;2023-02-13T07:25:18;99455.38;;;-2.33;100.00
35435;BME280;21556;55.782;37.528;2023-02-13T07:27:44;99442.63;;;-2.31;100.00
35435;BME280;21556;55.782;37.528;2023-02-13T07:30:10;99446.69;;;-2.48;100.00
35435;BME280;21556;55.782;37.528;2023-02-13T07:32:36;99439.38;;;-2.55;100.00
35435;BME280;21556;55.782;37.528;2023-02-13T07:35:02;99446.81;;;-2.47;100.00
35435;BME280;21556;55.782;37.528;2023-02-13T07:37:34;99440.53;;;-2.37;100.00
35435;BME280;21556;55.782;37.528;2023-02-13T07:40:00;99433.25;;;-2.44;100.00
35435;BME280;21556;55.782;37.528;2023-02-13T07:42:31;99424.53;;;-2.33;100.00
35435;BME280;21556;55.782;37.528;2023-02-13T07:44:57;99414.50;;;-2.15;100.00
35435;BME280;21556;55.782;37.528;2023-02-13T07:47:23;99425.53;;;-2.31;100.00
35435;BME280;21556;55.782;37.528;2023-02-13T07:49:50;99425.31;;;-2.21;100.00
35435;BME280;21556;55.782;37.528;2023-02-13T07:52:17;99429.88;;;-2.30;100.00
35435;BME280;21556;55.782;37.528;2023-02-13T07:54:44;99426.34;;;-2.04;100.00
35435;BME280;21556;55.782;37.528;2023-02-13T07:57:16;99418.75;;;-2.15;100.00
35435;BME280;21556;55.782;37.528;2023-02-13T07:59:42;99424.56;;;-2.05;100.00
35435;BME280;21556;55.782;37.528;2023-02-13T08:02:12;99422.56;;;-1.96;100.00
35435;BME280;21556;55.782;37.528;2023-02-13T08:04:39;99423.81;;;-2.17;100.00
35435;BME280;21556;55.782;37.528;2023-02-13T08:07:05;99415.56;;;-1.98;100.00
35435;BME280;21556;55.782;37.528;2023-02-13T08:09:31;99426.03;;;-1.95;100.00
35435;BME280;21556;55.782;37.528;2023-02-13T08:12:15;99417.97;;;-1.86;100.00
35435;BME280;21556;55.782;37.528;2023-02-13T08:14:41;99415.41;;;-1.86;100.00
35435;BME280;21556;55.782;37.528;2023-02-13T08:17:09;99407.66;;;-1.73;100.00
35435;BME280;21556;55.782;37.528;2023-02-13T08:19:35;99400.31;;;-1.67;100.00
35435;BME280;21556;55.782;37.528;2023-02-13T08:22:01;99401.28;;;-1.93;100.00
35435;BME280;21556;55.782;37.528;2023-02-13T08:24:27;99391.03;;;-1.78;100.00
35435;BME280;21556;55.782;37.528;2023-02-13T08:26:55;99401.00;;;-1.70;100.00
35435;BME280;21556;55.782;37.528;2023-02-13T08:29:22;99392.53;;;-1.82;100.00
35435;BME280;21556;55.782;37.528;2023-02-13T08:31:49;99381.56;;;-1.79;100.00
35435;BME280;21556;55.782;37.528;2023-02-13T08:34:14;99374.28;;;-1.72;100.00
35435;BME280;21556;55.782;37.528;2023-02-13T08:36:40;99371.91;;;-1.68;100.00
35435;BME280;21556;55.782;37.528;2023-02-13T08:39:08;99374.31;;;-1.57;100.00
35435;BME280;21556;55.782;37.528;2023-02-13T08:41:34;99369.97;;;-1.43;100.00
35435;BME280;21556;55.782;37.528;2023-02-13T08:44:00;99361.56;;;-1.55;100.00
35435;BME280;21556;55.782;37.528;2023-02-13T08:46:26;99361.81;;;-1.36;100.00
35435;BME280;21556;55.782;37.528;2023-02-13T08:48:52;99354.28;;;-1.33;100.00
35435;BME280;21556;55.782;37.528;2023-02-13T08:51:19;99354.63;;;-1.27;100.00
35435;BME280;21556;55.782;37.528;2023-02-13T08:53:44;99347.53;;;-1.16;100.00
35435;BME280;21556;55.782;37.528;2023-02-13T08:56:10;99346.72;;;-1.15;100.00
35435;BME280;21556;55.782;37.528;2023-02-13T08:58:36;99347.00;;;-1.40;100.00
35435;BME280;21556;55.782;37.528;2023-02-13T09:01:07;99349.56;;;-1.40;100.00
35435;BME280;21556;55.782;37.528;2023-02-13T09:03:35;99347.88;;;-1.54;100.00
35435;BME280;21556;55.782;37.528;2023-02-13T09:06:01;99354.91;;;-1.52;100.00
35435;BME280;21556;55.782;37.528;2023-02-13T09:08:27;99349.00;;;-1.64;100.00
35435;BME280;21556;55.782;37.528;2023-02-13T09:10:58;99351.16;;;-1.42;100.00
35435;BME280;21556;55.782;37.528;2023-02-13T09:13:29;99340.50;;;-1.18;100.00
35435;BME280;21556;55.782;37.528;2023-02-13T09:16:02;99340.97;;;-1.55;100.00
35435;BME280;21556;55.782;37.528;2023-02-13T09:18:28;99331.47;;;-1.27;100.00
35435;BME280;21556;55.782;37.528;2023-02-13T09:21:06;99328.34;;;-1.21;100.00
35435;BME280;21556;55.782;37.528;2023-02-13T09:23:33;99327.81;;;-1.15;100.00
35435;BME280;21556;55.782;37.528;2023-02-13T09:26:04;99325.78;;;-1.36;100.00
35435;BME280;21556;55.782;37.528;2023-02-13T09:28:32;99320.38;;;-1.55;100.00
35435;BME280;21556;55.782;37.528;2023-02-13T09:30:59;99322.16;;;-1.69;100.00
35435;BME280;21556;55.782;37.528;2023-02-13T09:33:36;99301.03;;;-1.34;100.00
35435;BME280;21556;55.782;37.528;2023-02-13T09:36:11;99291.44;;;-1.36;100.00
35435;BME280;21556;55.782;37.528;2023-02-13T09:38:40;99290.44;;;-1.24;100.00
35435;BME280;21556;55.782;37.528;2023-02-13T09:41:21;99276.56;;;-1.11;100.00
35435;BME280;21556;55.782;37.528;2023-02-13T09:46:36;99273.72;;;-1.01;100.00
35435;BME280;21556;55.782;37.528;2023-02-13T09:49:10;99267.88;;;-0.82;100.00
35435;BME280;21556;55.782;37.528;2023-02-13T09:51:37;99262.91;;;-0.79;100.00
35435;BME280;21556;55.782;37.528;2023-02-13T09:54:07;99263.47;;;-0.68;100.00
35435;BME280;21556;55.782;37.528;2023-02-13T09:57:07;99265.28;;;-0.98;100.00
35435;BME280;21556;55.782;37.528;2023-02-13T10:02:45;99263.72;;;-0.63;100.00
35435;BME280;21556;55.782;37.528;2023-02-13T10:16:37;99253.16;;;-0.52;100.00
35435;BME280;21556;55.782;37.528;2023-02-13T10:21:48;99242.06;;;-0.67;100.00
35435;BME280;21556;55.782;37.528;2023-02-13T10:26:55;99242.63;;;-0.73;100.00
35435;BME280;21556;55.782;37.528;2023-02-13T10:29:38;99244.94;;;-0.77;100.00
35435;BME280;21556;55.782;37.528;2023-02-13T10:35:03;99241.13;;;-0.36;100.00
35435;BME280;21556;55.782;37.528;2023-02-13T10:37:35;99226.84;;;-0.46;100.00
35435;BME280;21556;55.782;37.528;2023-02-13T10:40:11;99225.19;;;-0.11;100.00
35435;BME280;21556;55.782;37.528;2023-02-13T10:42:50;99224.47;;;-0.09;100.00
35435;BME280;21556;55.782;37.528;2023-02-13T10:45:46;99224.72;;;-0.20;100.00
35435;BME280;21556;55.782;37.528;2023-02-13T10:50:55;99205.88;;;0.15;100.00
35435;BME280;21556;55.782;37.528;2023-02-13T10:59:15;99194.13;;;-0.14;100.00
35435;BME280;21556;55.782;37.528;2023-02-13T11:01:47;99186.25;;;0.01;100.00
35435;BME280;21556;55.782;37.528;2023-02-13T11:04:18;99193.13;;;0.00;100.00
35435;BME280;21556;55.782;37.528;2023-02-13T11:09:20;99172.72;;;0.22;100.00
35435;BME280;21556;55.782;37.528;2023-02-13T11:11:47;99169.00;;;-0.01;100.00
35435;BME280;21556;55.782;37.528;2023-02-13T11:14:16;99164.31;;;0.27;100.00
35435;BME280;21556;55.782;37.528;2023-02-13T11:17:04;99157.63;;;0.30;100.00
35435;BME280;21556;55.782;37.528;2023-02-13T11:19:49;99162.41;;;0.40;100.00
35435;BME280;21556;55.782;37.528;2023-02-13T11:22:26;99157.81;;;0.17;100.00
35435;BME280;21556;55.782;37.528;2023-02-13T11:24:56;99156.22;;;0.19;100.00
35435;BME280;21556;55.782;37.528;2023-02-13T11:27:31;99157.25;;;0.22;100.00
35435;BME280;21556;55.782;37.528;2023-02-13T11:30:02;99167.91;;;0.12;100.00
35435;BME280;21556;55.782;37.528;2023-02-13T11:32:33;99153.19;;;0.28;100.00
35435;BME280;21556;55.782;37.528;2023-02-13T11:35:29;99149.78;;;0.29;100.00
35435;BME280;21556;55.782;37.528;2023-02-13T11:40:42;99142.94;;;0.29;100.00
35435;BME280;21556;55.782;37.528;2023-02-13T11:43:26;99131.88;;;0.32;100.00
35435;BME280;21556;55.782;37.528;2023-02-13T11:46:05;99127.00;;;0.56;100.00
35435;BME280;21556;55.782;37.528;2023-02-13T11:48:32;99122.78;;;0.58;100.00
35435;BME280;21556;55.782;37.528;2023-02-13T11:50:58;99121.16;;;0.60;100.00
35435;BME280;21556;55.782;37.528;2023-02-13T11:53:36;99111.34;;;0.53;100.00
35435;BME280;21556;55.782;37.528;2023-02-13T11:56:11;99110.25;;;0.65;100.00
35435;BME280;21556;55.782;37.528;2023-02-13T11:58:38;99114.38;;;0.62;100.00
35435;BME280;21556;55.782;37.528;2023-02-13T12:04:14;99109.16;;;0.80;100.00
35435;BME280;21556;55.782;37.528;2023-02-13T12:06:57;99101.16;;;0.74;100.00
35435;BME280;21556;55.782;37.528;2023-02-13T12:09:24;99089.31;;;0.59;100.00
35435;BME280;21556;55.782;37.528;2023-02-13T12:11:52;99082.06;;;0.89;100.00
35435;BME280;21556;55.782;37.528;2023-02-13T12:14:26;99090.09;;;0.95;100.00
35435;BME280;21556;55.782;37.528;2023-02-13T12:16:59;99086.00;;;0.81;100.00
35435;BME280;21556;55.782;37.528;2023-02-13T12:19:47;99082.88;;;0.88;100.00
35435;BME280;21556;55.782;37.528;2023-02-13T12:28:06;99081.50;;;0.77;100.00
35435;BME280;21556;55.782;37.528;2023-02-13T12:30:55;99082.06;;;0.89;100.00
35435;BME280;21556;55.782;37.528;2023-02-13T12:47:21;99062.38;;;1.12;100.00
35435;BME280;21556;55.782;37.528;2023-02-13T12:50:46;99052.59;;;1.05;100.00
35435;BME280;21556;55.782;37.528;2023-02-13T12:55:43;99043.75;;;1.19;100.00
35435;BME280;21556;55.782;37.528;2023-02-13T13:01:22;99019.75;;;1.22;100.00
35435;BME280;21556;55.782;37.528;2023-02-13T13:12:06;99027.03;;;1.31;100.00
35435;BME280;21556;55.782;37.528;2023-02-13T13:20:21;99021.41;;;1.20;100.00
35435;BME280;21556;55.782;37.528;2023-02-13T13:23:11;99022.06;;;1.35;100.00
35435;BME280;21556;55.782;37.528;2023-02-13T13:28:28;99015.03;;;1.33;100.00
35435;BME280;21556;55.782;37.528;2023-02-13T13:30:58;99016.44;;;1.25;100.00
35435;BME280;21556;55.782;37.528;2023-02-13T13:33:27;99022.28;;;1.20;100.00
35435;BME280;21556;55.782;37.528;2023-02-13T13:38:56;99015.03;;;1.33;100.00
35435;BME280;21556;55.782;37.528;2023-02-13T13:41:46;99005.41;;;1.29;100.00
35435;BME280;21556;55.782;37.528;2023-02-13T13:50:35;98997.38;;;1.23;100.00
35435;BME280;21556;55.782;37.528;2023-02-13T13:58:46;99001.34;;;1.14;100.00
35435;BME280;21556;55.782;37.528;2023-02-13T14:01:30;98991.50;;;1.06;100.00
35435;BME280;21556;55.782;37.528;2023-02-13T14:04:44;98991.38;;;1.03;100.00
35435;BME280;21556;55.782;37.528;2023-02-13T14:09:38;98986.06;;;1.00;100.00
35435;BME280;21556;55.782;37.528;2023-02-13T14:14:59;98984.25;;;0.97;100.00
35435;BME280;21556;55.782;37.528;2023-02-13T14:23:16;98969.97;;;0.86;100.00
35435;BME280;21556;55.782;37.528;2023-02-13T14:25:47;98965.91;;;1.12;100.00
35435;BME280;21556;55.782;37.528;2023-02-13T14:28:25;98965.03;;;1.11;100.00
35435;BME280;21556;55.782;37.528;2023-02-13T14:31:04;98967.63;;;1.11;100.00
35435;BME280;21556;55.782;37.528;2023-02-13T14:33:32;98965.00;;;1.10;100.00
35435;BME280;21556;55.782;37.528;2023-02-13T14:36:06;98962.09;;;1.02;100.00
35435;BME280;21556;55.782;37.528;2023-02-13T14:38:35;98948.72;;;0.91;100.00
35435;BME280;21556;55.782;37.528;2023-02-13T14:41:01;98952.81;;;1.07;100.00
35435;BME280;21556;55.782;37.528;2023-02-13T14:43:48;98954.00;;;1.15;100.00
35435;BME280;21556;55.782;37.528;2023-02-13T14:46:31;98952.25;;;1.14;100.00
35435;BME280;21556;55.782;37.528;2023-02-13T14:49:25;98940.97;;;1.12;100.00
35435;BME280;21556;55.782;37.528;2023-02-13T14:52:18;98937.25;;;1.06;100.00
35435;BME280;21556;55.782;37.528;2023-02-13T14:54:50;98940.78;;;1.29;100.00
35435;BME280;21556;55.782;37.528;2023-02-13T14:57:38;98935.63;;;1.08;100.00
35435;BME280;21556;55.782;37.528;2023-02-13T15:02:50;98928.94;;;1.13;100.00
35435;BME280;21556;55.782;37.528;2023-02-13T15:05:19;98910.34;;;1.22;100.00
35435;BME280;21556;55.782;37.528;2023-02-13T15:07:49;98907.28;;;1.09;100.00
35435;BME280;21556;55.782;37.528;2023-02-13T15:10:49;98895.81;;;1.24;100.00
35435;BME280;21556;55.782;37.528;2023-02-13T15:13:30;98890.78;;;1.06;100.00
35435;BME280;21556;55.782;37.528;2023-02-13T15:16:18;98892.53;;;1.07;100.00
35435;BME280;21556;55.782;37.528;2023-02-13T15:18:49;98876.75;;;1.22;100.00
35435;BME280;21556;55.782;37.528;2023-02-13T15:21:23;98871.19;;;1.12;100.00
35435;BME280;21556;55.782;37.528;2023-02-13T15:23:53;98866.00;;;1.11;100.00
35435;BME280;21556;55.782;37.528;2023-02-13T15:26:27;98867.81;;;1.13;100.00
35435;BME280;21556;55.782;37.528;2023-02-13T15:29:17;98870.63;;;1.19;100.00
35435;BME280;21556;55.782;37.528;2023-02-13T15:31:44;98869.00;;;1.22;100.00
35435;BME280;21556;55.782;37.528;2023-02-13T15:34:34;98869.44;;;1.11;100.00
35435;BME280;21556;55.782;37.528;2023-02-13T15:37:01;98862.13;;;1.22;100.00
35435;BME280;21556;55.782;37.528;2023-02-13T15:39:31;98852.50;;;1.18;100.00
35435;BME280;21556;55.782;37.528;2023-02-13T15:42:01;98842.75;;;1.11;100.00
35435;BME280;21556;55.782;37.528;2023-02-13T15:44:30;98838.56;;;1.14;100.00
35435;BME280;21556;55.782;37.528;2023-02-13T15:47:04;98839.84;;;1.03;100.00
35435;BME280;21556;55.782;37.528;2023-02-13T15:49:38;98842.22;;;1.19;100.00
35435;BME280;21556;55.782;37.528;2023-02-13T15:52:21;98836.38;;;1.03;100.00
35435;BME280;21556;55.782;37.528;2023-02-13T15:54:54;98835.88;;;1.11;100.00
35435;BME280;21556;55.782;37.528;2023-02-13T15:57:25;98838.00;;;1.22;100.00